sensor_id;sensor_type;location;lat;lon;timestamp;P1;durP1;ratioP1;P2;durP2;ratioP2
70850;SDS011;58475;49.662;9.636;2022-10-16T00:00:22;3.35;;;1.80;;
70850;SDS011;58475;49.662;9.636;2022-10-16T00:02:48;6.13;;;2.00;;
70850;SDS011;58475;49.662;9.636;2022-10-16T00:05:13;4.05;;;2.00;;
70850;SDS011;58475;49.662;9.636;2022-10-16T00:07:39;6.07;;;1.88;;
70850;SDS011;58475;49.662;9.636;2022-10-16T00:10:04;4.35;;;1.80;;
70850;SDS011;58475;49.662;9.636;2022-10-16T00:12:30;3.30;;;1.80;;
70850;SDS011;58475;49.662;9.636;2022-10-16T00:14:55;3.95;;;1.92;;
70850;SDS011;58475;49.662;9.636;2022-10-16T00:17:21;5.97;;;2.15;;
70850;SDS011;58475;49.662;9.636;2022-10-16T00:19:46;4.40;;;2.00;;
70850;SDS011;58475;49.662;9.636;2022-10-16T00:22:11;5.25;;;2.10;;
70850;SDS011;58475;49.662;9.636;2022-10-16T00:24:37;6.38;;;2.20;;
70850;SDS011;58475;49.662;9.636;2022-10-16T00:27:02;4.38;;;2.00;;
70850;SDS011;58475;49.662;9.636;2022-10-16T00:29:27;3.25;;;2.00;;
70850;SDS011;58475;49.662;9.636;2022-10-16T00:31:53;4.30;;;1.67;;
70850;SDS011;58475;49.662;9.636;2022-10-16T00:34:18;4.45;;;2.10;;
70850;SDS011;58475;49.662;9.636;2022-10-16T00:36:44;3.33;;;1.90;;
70850;SDS011;58475;49.662;9.636;2022-10-16T00:39:09;5.43;;;2.10;;
70850;SDS011;58475;49.662;9.636;2022-10-16T00:41:34;4.72;;;1.95;;
70850;SDS011;58475;49.662;9.636;2022-10-16T00:44:01;5.35;;;2.22;;
70850;SDS011;58475;49.662;9.636;2022-10-16T00:46:38;5.97;;;2.15;;
70850;SDS011;58475;49.662;9.636;2022-10-16T00:49:06;7.20;;;2.50;;
70850;SDS011;58475;49.662;9.636;2022-10-16T00:51:40;5.85;;;3.30;;
70850;SDS011;58475;49.662;9.636;2022-10-16T00:54:17;6.28;;;3.28;;
70850;SDS011;58475;49.662;9.636;2022-10-16T00:56:46;4.95;;;2.47;;
70850;SDS011;58475;49.662;9.636;2022-10-16T00:59:16;4.53;;;2.33;;
70850;SDS011;58475;49.662;9.636;2022-10-16T01:01:44;5.60;;;2.35;;
70850;SDS011;58475;49.662;9.636;2022-10-16T01:04:09;4.60;;;2.15;;
70850;SDS011;58475;49.662;9.636;2022-10-16T01:14:27;4.95;;;2.30;;
70850;SDS011;58475;49.662;9.636;2022-10-16T01:17:03;4.07;;;2.17;;
70850;SDS011;58475;49.662;9.636;2022-10-16T01:19:40;4.82;;;2.10;;
70850;SDS011;58475;49.662;9.636;2022-10-16T01:22:19;5.70;;;2.42;;
70850;SDS011;58475;49.662;9.636;2022-10-16T01:24:48;5.60;;;2.40;;
70850;SDS011;58475;49.662;9.636;2022-10-16T01:27:16;6.72;;;2.15;;
70850;SDS011;58475;49.662;9.636;2022-10-16T01:35:14;6.40;;;2.10;;
70850;SDS011;58475;49.662;9.636;2022-10-16T01:37:51;4.50;;;2.10;;
70850;SDS011;58475;49.662;9.636;2022-10-16T01:40:24;4.90;;;2.20;;
70850;SDS011;58475;49.662;9.636;2022-10-16T01:43:05;4.28;;;2.15;;
70850;SDS011;58475;49.662;9.636;2022-10-16T01:45:35;4.55;;;2.35;;
70850;SDS011;58475;49.662;9.636;2022-10-16T01:48:02;8.07;;;2.47;;
70850;SDS011;58475;49.662;9.636;2022-10-16T01:50:31;5.20;;;2.08;;
70850;SDS011;58475;49.662;9.636;2022-10-16T01:52:59;4.80;;;2.08;;
70850;SDS011;58475;49.662;9.636;2022-10-16T01:55:29;4.10;;;1.98;;
70850;SDS011;58475;49.662;9.636;2022-10-16T01:57:59;3.63;;;2.10;;
70850;SDS011;58475;49.662;9.636;2022-10-16T02:00:27;5.30;;;2.17;;
70850;SDS011;58475;49.662;9.636;2022-10-16T02:02:54;5.95;;;2.10;;
70850;SDS011;58475;49.662;9.636;2022-10-16T02:05:26;5.50;;;2.28;;
70850;SDS011;58475;49.662;9.636;2022-10-16T02:10:17;3.95;;;2.13;;
70850;SDS011;58475;49.662;9.636;2022-10-16T02:12:48;8.25;;;2.42;;
70850;SDS011;58475;49.662;9.636;2022-10-16T02:15:18;4.20;;;2.25;;
70850;SDS011;58475;49.662;9.636;2022-10-16T02:17:44;3.67;;;2.20;;
70850;SDS011;58475;49.662;9.636;2022-10-16T02:20:09;3.88;;;2.00;;
70850;SDS011;58475;49.662;9.636;2022-10-16T02:22:39;4.72;;;2.00;;
70850;SDS011;58475;49.662;9.636;2022-10-16T02:25:53;4.10;;;1.85;;
70850;SDS011;58475;49.662;9.636;2022-10-16T02:28:13;4.72;;;1.90;;
70850;SDS011;58475;49.662;9.636;2022-10-16T02:30:49;4.68;;;1.90;;
70850;SDS011;58475;49.662;9.636;2022-10-16T02:33:20;4.30;;;1.88;;
70850;SDS011;58475;49.662;9.636;2022-10-16T02:35:48;5.07;;;1.92;;
70850;SDS011;58475;49.662;9.636;2022-10-16T02:38:14;5.90;;;1.90;;
70850;SDS011;58475;49.662;9.636;2022-10-16T02:40:40;5.50;;;1.80;;
70850;SDS011;58475;49.662;9.636;2022-10-16T02:43:06;4.95;;;2.00;;
70850;SDS011;58475;49.662;9.636;2022-10-16T02:45:31;7.72;;;2.17;;
70850;SDS011;58475;49.662;9.636;2022-10-16T02:47:57;4.20;;;2.15;;
70850;SDS011;58475;49.662;9.636;2022-10-16T02:50:22;4.95;;;2.03;;
70850;SDS011;58475;49.662;9.636;2022-10-16T02:52:50;8.15;;;2.03;;
70850;SDS011;58475;49.662;9.636;2022-10-16T02:55:15;3.78;;;1.90;;
70850;SDS011;58475;49.662;9.636;2022-10-16T02:57:41;3.30;;;1.75;;
70850;SDS011;58475;49.662;9.636;2022-10-16T03:00:07;4.55;;;1.73;;
70850;SDS011;58475;49.662;9.636;2022-10-16T03:02:36;5.20;;;2.00;;
70850;SDS011;58475;49.662;9.636;2022-10-16T03:05:02;3.67;;;1.90;;
70850;SDS011;58475;49.662;9.636;2022-10-16T03:07:27;4.60;;;1.80;;
70850;SDS011;58475;49.662;9.636;2022-10-16T03:09:53;4.32;;;2.03;;
70850;SDS011;58475;49.662;9.636;2022-10-16T03:12:19;5.47;;;2.05;;
70850;SDS011;58475;49.662;9.636;2022-10-16T03:14:44;6.88;;;2.10;;
70850;SDS011;58475;49.662;9.636;2022-10-16T03:17:10;4.20;;;2.00;;
70850;SDS011;58475;49.662;9.636;2022-10-16T03:19:35;3.63;;;2.30;;
70850;SDS011;58475;49.662;9.636;2022-10-16T03:22:01;4.55;;;2.10;;
70850;SDS011;58475;49.662;9.636;2022-10-16T03:24:27;3.83;;;1.80;;
70850;SDS011;58475;49.662;9.636;2022-10-16T03:26:52;4.32;;;1.90;;
70850;SDS011;58475;49.662;9.636;2022-10-16T03:29:17;7.68;;;2.10;;
70850;SDS011;58475;49.662;9.636;2022-10-16T03:31:43;3.92;;;1.75;;
70850;SDS011;58475;49.662;9.636;2022-10-16T03:34:08;4.03;;;2.00;;
70850;SDS011;58475;49.662;9.636;2022-10-16T03:36:34;4.53;;;1.80;;
70850;SDS011;58475;49.662;9.636;2022-10-16T03:38:59;3.95;;;1.92;;
70850;SDS011;58475;49.662;9.636;2022-10-16T03:41:25;4.38;;;2.00;;
70850;SDS011;58475;49.662;9.636;2022-10-16T03:43:50;3.30;;;2.05;;
70850;SDS011;58475;49.662;9.636;2022-10-16T03:46:15;4.38;;;1.95;;
70850;SDS011;58475;49.662;9.636;2022-10-16T03:48:41;3.42;;;1.83;;
70850;SDS011;58475;49.662;9.636;2022-10-16T03:51:06;6.10;;;2.00;;
70850;SDS011;58475;49.662;9.636;2022-10-16T03:53:31;3.33;;;1.80;;
70850;SDS011;58475;49.662;9.636;2022-10-16T03:55:57;4.45;;;2.03;;
70850;SDS011;58475;49.662;9.636;2022-10-16T03:58:23;4.72;;;1.90;;
70850;SDS011;58475;49.662;9.636;2022-10-16T04:00:49;4.35;;;1.90;;
70850;SDS011;58475;49.662;9.636;2022-10-16T04:03:14;4.22;;;2.00;;
70850;SDS011;58475;49.662;9.636;2022-10-16T04:05:40;6.10;;;2.10;;
70850;SDS011;58475;49.662;9.636;2022-10-16T04:08:06;3.30;;;2.03;;
70850;SDS011;58475;49.662;9.636;2022-10-16T04:10:31;7.05;;;2.25;;
70850;SDS011;58475;49.662;9.636;2022-10-16T04:12:56;4.60;;;2.22;;
70850;SDS011;58475;49.662;9.636;2022-10-16T04:15:23;4.93;;;1.92;;
70850;SDS011;58475;49.662;9.636;2022-10-16T04:17:50;3.03;;;1.75;;
70850;SDS011;58475;49.662;9.636;2022-10-16T04:20:16;4.13;;;1.90;;
70850;SDS011;58475;49.662;9.636;2022-10-16T04:22:42;5.32;;;2.15;;
70850;SDS011;58475;49.662;9.636;2022-10-16T04:25:07;6.25;;;2.10;;
70850;SDS011;58475;49.662;9.636;2022-10-16T04:27:33;4.20;;;2.00;;
70850;SDS011;58475;49.662;9.636;2022-10-16T04:29:59;4.97;;;2.15;;
70850;SDS011;58475;49.662;9.636;2022-10-16T04:32:25;4.15;;;2.08;;
70850;SDS011;58475;49.662;9.636;2022-10-16T04:34:51;4.28;;;2.20;;
70850;SDS011;58475;49.662;9.636;2022-10-16T04:37:16;6.50;;;2.15;;
70850;SDS011;58475;49.662;9.636;2022-10-16T04:39:42;8.27;;;2.03;;
70850;SDS011;58475;49.662;9.636;2022-10-16T04:42:07;6.72;;;2.15;;
70850;SDS011;58475;49.662;9.636;2022-10-16T04:44:33;5.38;;;2.10;;
70850;SDS011;58475;49.662;9.636;2022-10-16T04:46:59;5.05;;;2.05;;
70850;SDS011;58475;49.662;9.636;2022-10-16T04:49:24;4.15;;;2.00;;
70850;SDS011;58475;49.662;9.636;2022-10-16T04:51:50;6.72;;;2.10;;
70850;SDS011;58475;49.662;9.636;2022-10-16T04:54:15;4.45;;;2.13;;
70850;SDS011;58475;49.662;9.636;2022-10-16T04:56:41;5.07;;;2.20;;
70850;SDS011;58475;49.662;9.636;2022-10-16T04:59:16;6.20;;;2.13;;
70850;SDS011;58475;49.662;9.636;2022-10-16T05:01:42;2.50;;;1.70;;
70850;SDS011;58475;49.662;9.636;2022-10-16T05:04:08;4.35;;;2.00;;
70850;SDS011;58475;49.662;9.636;2022-10-16T05:06:34;3.67;;;1.77;;
70850;SDS011;58475;49.662;9.636;2022-10-16T05:09:00;5.55;;;1.85;;
70850;SDS011;58475;49.662;9.636;2022-10-16T05:11:25;4.18;;;2.00;;
70850;SDS011;58475;49.662;9.636;2022-10-16T05:13:50;6.60;;;2.00;;
70850;SDS011;58475;49.662;9.636;2022-10-16T05:16:16;3.85;;;1.90;;
70850;SDS011;58475;49.662;9.636;2022-10-16T05:18:41;5.18;;;2.00;;
70850;SDS011;58475;49.662;9.636;2022-10-16T05:21:07;4.88;;;1.92;;
70850;SDS011;58475;49.662;9.636;2022-10-16T05:23:33;8.55;;;2.30;;
70850;SDS011;58475;49.662;9.636;2022-10-16T05:25:58;6.40;;;2.13;;
70850;SDS011;58475;49.662;9.636;2022-10-16T05:28:25;3.60;;;2.00;;
70850;SDS011;58475;49.662;9.636;2022-10-16T05:30:52;5.72;;;2.10;;
70850;SDS011;58475;49.662;9.636;2022-10-16T05:33:19;10.73;;;2.30;;
70850;SDS011;58475;49.662;9.636;2022-10-16T05:35:49;5.45;;;2.10;;
70850;SDS011;58475;49.662;9.636;2022-10-16T05:38:15;5.07;;;2.15;;
70850;SDS011;58475;49.662;9.636;2022-10-16T05:40:41;5.97;;;2.05;;
70850;SDS011;58475;49.662;9.636;2022-10-16T05:43:07;9.80;;;4.15;;
70850;SDS011;58475;49.662;9.636;2022-10-16T05:45:32;7.10;;;2.90;;
70850;SDS011;58475;49.662;9.636;2022-10-16T05:47:58;6.07;;;2.53;;
70850;SDS011;58475;49.662;9.636;2022-10-16T05:50:24;7.85;;;3.13;;
70850;SDS011;58475;49.662;9.636;2022-10-16T05:52:50;6.70;;;3.20;;
70850;SDS011;58475;49.662;9.636;2022-10-16T05:55:15;10.88;;;5.53;;
70850;SDS011;58475;49.662;9.636;2022-10-16T05:57:40;21.77;;;10.05;;
70850;SDS011;58475;49.662;9.636;2022-10-16T06:00:06;19.92;;;10.30;;
70850;SDS011;58475;49.662;9.636;2022-10-16T06:02:37;24.30;;;12.95;;
70850;SDS011;58475;49.662;9.636;2022-10-16T06:05:03;18.80;;;10.55;;
70850;SDS011;58475;49.662;9.636;2022-10-16T06:07:35;19.63;;;9.80;;
70850;SDS011;58475;49.662;9.636;2022-10-16T06:10:02;11.50;;;6.35;;
70850;SDS011;58475;49.662;9.636;2022-10-16T06:12:28;16.20;;;6.88;;
70850;SDS011;58475;49.662;9.636;2022-10-16T06:14:54;13.40;;;6.90;;
70850;SDS011;58475;49.662;9.636;2022-10-16T06:17:19;5.68;;;2.88;;
70850;SDS011;58475;49.662;9.636;2022-10-16T06:19:45;4.63;;;2.63;;
70850;SDS011;58475;49.662;9.636;2022-10-16T06:22:10;4.40;;;2.35;;
70850;SDS011;58475;49.662;9.636;2022-10-16T06:24:35;5.13;;;2.50;;
70850;SDS011;58475;49.662;9.636;2022-10-16T06:27:02;5.55;;;2.38;;
70850;SDS011;58475;49.662;9.636;2022-10-16T06:29:28;4.45;;;2.50;;
70850;SDS011;58475;49.662;9.636;2022-10-16T06:31:53;5.28;;;2.58;;
70850;SDS011;58475;49.662;9.636;2022-10-16T06:34:19;6.18;;;2.90;;
70850;SDS011;58475;49.662;9.636;2022-10-16T06:36:44;4.95;;;2.90;;
70850;SDS011;58475;49.662;9.636;2022-10-16T06:39:10;7.07;;;2.75;;
70850;SDS011;58475;49.662;9.636;2022-10-16T06:41:35;6.10;;;3.10;;
70850;SDS011;58475;49.662;9.636;2022-10-16T06:44:13;6.97;;;3.65;;
70850;SDS011;58475;49.662;9.636;2022-10-16T06:46:39;9.35;;;4.07;;
70850;SDS011;58475;49.662;9.636;2022-10-16T06:49:04;7.55;;;3.50;;
70850;SDS011;58475;49.662;9.636;2022-10-16T06:51:30;5.43;;;3.22;;
70850;SDS011;58475;49.662;9.636;2022-10-16T06:54:00;4.90;;;2.60;;
70850;SDS011;58475;49.662;9.636;2022-10-16T06:56:26;4.40;;;2.28;;
70850;SDS011;58475;49.662;9.636;2022-10-16T06:58:53;3.85;;;2.15;;
70850;SDS011;58475;49.662;9.636;2022-10-16T07:01:19;8.20;;;2.30;;
70850;SDS011;58475;49.662;9.636;2022-10-16T07:03:47;4.45;;;2.20;;
70850;SDS011;58475;49.662;9.636;2022-10-16T07:06:13;5.45;;;2.42;;
70850;SDS011;58475;49.662;9.636;2022-10-16T07:08:43;6.43;;;2.53;;
70850;SDS011;58475;49.662;9.636;2022-10-16T07:11:12;4.63;;;2.60;;
70850;SDS011;58475;49.662;9.636;2022-10-16T07:13:40;6.07;;;2.78;;
70850;SDS011;58475;49.662;9.636;2022-10-16T07:16:11;6.35;;;2.78;;
70850;SDS011;58475;49.662;9.636;2022-10-16T07:18:38;5.47;;;2.58;;
70850;SDS011;58475;49.662;9.636;2022-10-16T07:21:15;4.55;;;2.45;;
70850;SDS011;58475;49.662;9.636;2022-10-16T07:23:42;5.15;;;2.65;;
70850;SDS011;58475;49.662;9.636;2022-10-16T07:26:08;5.78;;;2.70;;
70850;SDS011;58475;49.662;9.636;2022-10-16T07:28:34;5.97;;;3.08;;
70850;SDS011;58475;49.662;9.636;2022-10-16T07:31:04;5.72;;;3.47;;
70850;SDS011;58475;49.662;9.636;2022-10-16T07:33:32;8.52;;;4.20;;
70850;SDS011;58475;49.662;9.636;2022-10-16T07:35:59;9.35;;;4.15;;
70850;SDS011;58475;49.662;9.636;2022-10-16T07:38:24;6.47;;;2.88;;
70850;SDS011;58475;49.662;9.636;2022-10-16T07:40:59;6.20;;;3.10;;
70850;SDS011;58475;49.662;9.636;2022-10-16T07:43:26;6.30;;;3.30;;
70850;SDS011;58475;49.662;9.636;2022-10-16T07:45:53;7.10;;;3.33;;
70850;SDS011;58475;49.662;9.636;2022-10-16T07:48:20;5.80;;;3.10;;
70850;SDS011;58475;49.662;9.636;2022-10-16T07:50:46;6.55;;;3.30;;
70850;SDS011;58475;49.662;9.636;2022-10-16T07:53:11;5.63;;;3.15;;
70850;SDS011;58475;49.662;9.636;2022-10-16T07:55:37;8.63;;;5.88;;
70850;SDS011;58475;49.662;9.636;2022-10-16T07:58:03;7.57;;;4.68;;
70850;SDS011;58475;49.662;9.636;2022-10-16T08:00:29;7.05;;;3.88;;
70850;SDS011;58475;49.662;9.636;2022-10-16T08:02:56;7.65;;;3.50;;
70850;SDS011;58475;49.662;9.636;2022-10-16T08:05:28;6.32;;;3.20;;
70850;SDS011;58475;49.662;9.636;2022-10-16T08:10:22;8.50;;;2.72;;
70850;SDS011;58475;49.662;9.636;2022-10-16T08:12:50;5.28;;;2.72;;
70850;SDS011;58475;49.662;9.636;2022-10-16T08:15:15;6.68;;;2.90;;
70850;SDS011;58475;49.662;9.636;2022-10-16T08:17:41;5.18;;;3.10;;
70850;SDS011;58475;49.662;9.636;2022-10-16T08:20:07;5.60;;;2.90;;
70850;SDS011;58475;49.662;9.636;2022-10-16T08:22:33;6.05;;;3.00;;
70850;SDS011;58475;49.662;9.636;2022-10-16T08:24:58;5.45;;;3.08;;
70850;SDS011;58475;49.662;9.636;2022-10-16T08:27:24;5.47;;;3.05;;
70850;SDS011;58475;49.662;9.636;2022-10-16T08:29:49;6.75;;;3.30;;
70850;SDS011;58475;49.662;9.636;2022-10-16T08:32:15;6.30;;;2.80;;
70850;SDS011;58475;49.662;9.636;2022-10-16T08:34:40;5.97;;;3.10;;
70850;SDS011;58475;49.662;9.636;2022-10-16T08:37:06;6.40;;;2.80;;
70850;SDS011;58475;49.662;9.636;2022-10-16T08:39:33;5.72;;;3.03;;
70850;SDS011;58475;49.662;9.636;2022-10-16T08:47:22;6.93;;;2.80;;
70850;SDS011;58475;49.662;9.636;2022-10-16T08:50:02;6.43;;;2.70;;
70850;SDS011;58475;49.662;9.636;2022-10-16T08:52:35;9.10;;;2.92;;
70850;SDS011;58475;49.662;9.636;2022-10-16T08:55:05;5.40;;;2.70;;
70850;SDS011;58475;49.662;9.636;2022-10-16T08:57:31;6.45;;;2.70;;
70850;SDS011;58475;49.662;9.636;2022-10-16T08:59:59;5.68;;;2.33;;
70850;SDS011;58475;49.662;9.636;2022-10-16T09:02:34;4.60;;;2.45;;
70850;SDS011;58475;49.662;9.636;2022-10-16T09:05:17;4.70;;;2.65;;
70850;SDS011;58475;49.662;9.636;2022-10-16T09:12:51;4.78;;;2.70;;
70850;SDS011;58475;49.662;9.636;2022-10-16T09:15:48;6.28;;;3.00;;
70850;SDS011;58475;49.662;9.636;2022-10-16T09:18:23;6.72;;;3.80;;
70850;SDS011;58475;49.662;9.636;2022-10-16T09:23:36;6.22;;;3.17;;
70850;SDS011;58475;49.662;9.636;2022-10-16T09:26:03;5.72;;;2.95;;
70850;SDS011;58475;49.662;9.636;2022-10-16T09:28:31;7.28;;;3.15;;
70850;SDS011;58475;49.662;9.636;2022-10-16T09:30:56;5.95;;;2.58;;
70850;SDS011;58475;49.662;9.636;2022-10-16T09:33:23;6.88;;;2.72;;
70850;SDS011;58475;49.662;9.636;2022-10-16T09:35:54;5.90;;;2.83;;
70850;SDS011;58475;49.662;9.636;2022-10-16T09:38:27;8.88;;;3.25;;
70850;SDS011;58475;49.662;9.636;2022-10-16T09:40:57;7.15;;;3.63;;
70850;SDS011;58475;49.662;9.636;2022-10-16T09:43:25;8.27;;;3.72;;
70850;SDS011;58475;49.662;9.636;2022-10-16T09:46:03;5.55;;;3.03;;
70850;SDS011;58475;49.662;9.636;2022-10-16T09:51:03;5.80;;;3.08;;
70850;SDS011;58475;49.662;9.636;2022-10-16T09:53:43;7.05;;;3.03;;
70850;SDS011;58475;49.662;9.636;2022-10-16T09:56:10;6.53;;;3.13;;
70850;SDS011;58475;49.662;9.636;2022-10-16T09:58:49;5.82;;;2.95;;
70850;SDS011;58475;49.662;9.636;2022-10-16T10:01:19;5.38;;;2.92;;
70850;SDS011;58475;49.662;9.636;2022-10-16T10:03:45;5.70;;;2.85;;
70850;SDS011;58475;49.662;9.636;2022-10-16T10:06:17;5.00;;;2.95;;
70850;SDS011;58475;49.662;9.636;2022-10-16T10:12:03;5.10;;;2.60;;
70850;SDS011;58475;49.662;9.636;2022-10-16T10:14:46;9.98;;;2.95;;
70850;SDS011;58475;49.662;9.636;2022-10-16T10:17:23;5.63;;;2.45;;
70850;SDS011;58475;49.662;9.636;2022-10-16T10:19:51;5.80;;;2.83;;
70850;SDS011;58475;49.662;9.636;2022-10-16T10:25:36;8.48;;;2.50;;
70850;SDS011;58475;49.662;9.636;2022-10-16T10:36:25;4.75;;;2.40;;
70850;SDS011;58475;49.662;9.636;2022-10-16T10:42:01;5.65;;;2.28;;
70850;SDS011;58475;49.662;9.636;2022-10-16T10:50:35;4.68;;;2.10;;
70850;SDS011;58475;49.662;9.636;2022-10-16T11:01:23;5.50;;;2.20;;
70850;SDS011;58475;49.662;9.636;2022-10-16T11:04:27;5.30;;;2.15;;
70850;SDS011;58475;49.662;9.636;2022-10-16T11:07:34;6.78;;;2.30;;
70850;SDS011;58475;49.662;9.636;2022-10-16T11:10:07;6.53;;;2.50;;
70850;SDS011;58475;49.662;9.636;2022-10-16T11:12:43;6.97;;;2.10;;
70850;SDS011;58475;49.662;9.636;2022-10-16T11:15:29;6.22;;;2.13;;
70850;SDS011;58475;49.662;9.636;2022-10-16T11:18:00;3.97;;;2.00;;
70850;SDS011;58475;49.662;9.636;2022-10-16T11:20:33;5.25;;;2.25;;
70850;SDS011;58475;49.662;9.636;2022-10-16T11:26:04;4.53;;;1.92;;
70850;SDS011;58475;49.662;9.636;2022-10-16T11:28:49;4.80;;;2.05;;
70850;SDS011;58475;49.662;9.636;2022-10-16T11:31:19;6.28;;;2.38;;
70850;SDS011;58475;49.662;9.636;2022-10-16T11:33:49;4.85;;;2.10;;
70850;SDS011;58475;49.662;9.636;2022-10-16T11:47:23;4.22;;;1.80;;
70850;SDS011;58475;49.662;9.636;2022-10-16T11:50:22;5.05;;;2.00;;
70850;SDS011;58475;49.662;9.636;2022-10-16T11:55:49;3.10;;;1.80;;
70850;SDS011;58475;49.662;9.636;2022-10-16T12:08:48;3.63;;;1.80;;
70850;SDS011;58475;49.662;9.636;2022-10-16T12:14:04;5.03;;;1.80;;
70850;SDS011;58475;49.662;9.636;2022-10-16T12:16:32;3.67;;;1.90;;
70850;SDS011;58475;49.662;9.636;2022-10-16T12:19:14;3.53;;;1.80;;
70850;SDS011;58475;49.662;9.636;2022-10-16T12:21:41;5.20;;;2.80;;
70850;SDS011;58475;49.662;9.636;2022-10-16T12:24:19;3.63;;;1.70;;
70850;SDS011;58475;49.662;9.636;2022-10-16T12:26:59;5.18;;;2.10;;
70850;SDS011;58475;49.662;9.636;2022-10-16T12:29:29;3.92;;;1.70;;
70850;SDS011;58475;49.662;9.636;2022-10-16T12:31:59;5.78;;;1.60;;
70850;SDS011;58475;49.662;9.636;2022-10-16T12:34:41;5.45;;;1.70;;
70850;SDS011;58475;49.662;9.636;2022-10-16T12:37:09;4.03;;;1.75;;
70850;SDS011;58475;49.662;9.636;2022-10-16T12:39:44;2.65;;;1.80;;
70850;SDS011;58475;49.662;9.636;2022-10-16T12:49:55;5.47;;;2.00;;
70850;SDS011;58475;49.662;9.636;2022-10-16T12:52:28;5.20;;;2.90;;
70850;SDS011;58475;49.662;9.636;2022-10-16T12:55:02;3.65;;;1.92;;
70850;SDS011;58475;49.662;9.636;2022-10-16T12:57:32;3.63;;;1.60;;
70850;SDS011;58475;49.662;9.636;2022-10-16T13:12:30;2.80;;;1.60;;
70850;SDS011;58475;49.662;9.636;2022-10-16T13:19:53;3.03;;;1.80;;
70850;SDS011;58475;49.662;9.636;2022-10-16T13:22:29;3.25;;;1.90;;
70850;SDS011;58475;49.662;9.636;2022-10-16T13:28:05;4.50;;;2.40;;
70850;SDS011;58475;49.662;9.636;2022-10-16T13:30:42;4.22;;;2.20;;
70850;SDS011;58475;49.662;9.636;2022-10-16T13:33:16;4.93;;;2.55;;
70850;SDS011;58475;49.662;9.636;2022-10-16T13:36:03;3.80;;;1.80;;
70850;SDS011;58475;49.662;9.636;2022-10-16T13:38:30;3.75;;;1.90;;
70850;SDS011;58475;49.662;9.636;2022-10-16T13:41:05;3.60;;;1.70;;
70850;SDS011;58475;49.662;9.636;2022-10-16T13:46:10;6.22;;;3.70;;
70850;SDS011;58475;49.662;9.636;2022-10-16T13:48:38;4.70;;;2.38;;
70850;SDS011;58475;49.662;9.636;2022-10-16T13:53:37;3.33;;;1.63;;
70850;SDS011;58475;49.662;9.636;2022-10-16T13:56:07;4.00;;;1.88;;
70850;SDS011;58475;49.662;9.636;2022-10-16T13:58:35;4.22;;;1.85;;
70850;SDS011;58475;49.662;9.636;2022-10-16T14:01:05;5.75;;;2.30;;
70850;SDS011;58475;49.662;9.636;2022-10-16T14:03:40;7.90;;;4.32;;
70850;SDS011;58475;49.662;9.636;2022-10-16T14:06:11;14.02;;;7.30;;
70850;SDS011;58475;49.662;9.636;2022-10-16T14:08:45;11.63;;;6.53;;
70850;SDS011;58475;49.662;9.636;2022-10-16T14:11:19;6.47;;;2.92;;
70850;SDS011;58475;49.662;9.636;2022-10-16T14:13:48;8.68;;;3.83;;
70850;SDS011;58475;49.662;9.636;2022-10-16T14:16:25;7.13;;;2.15;;
70850;SDS011;58475;49.662;9.636;2022-10-16T14:19:01;5.22;;;1.90;;
70850;SDS011;58475;49.662;9.636;2022-10-16T14:21:32;5.05;;;1.88;;
70850;SDS011;58475;49.662;9.636;2022-10-16T14:23:59;5.72;;;2.10;;
70850;SDS011;58475;49.662;9.636;2022-10-16T14:26:40;11.15;;;6.53;;
70850;SDS011;58475;49.662;9.636;2022-10-16T14:29:14;33.47;;;17.42;;
70850;SDS011;58475;49.662;9.636;2022-10-16T14:31:42;25.25;;;14.00;;
70850;SDS011;58475;49.662;9.636;2022-10-16T14:39:49;26.38;;;13.73;;
70850;SDS011;58475;49.662;9.636;2022-10-16T14:42:18;42.42;;;24.80;;
70850;SDS011;58475;49.662;9.636;2022-10-16T14:44:48;45.92;;;26.35;;
70850;SDS011;58475;49.662;9.636;2022-10-16T14:47:18;29.38;;;17.38;;
70850;SDS011;58475;49.662;9.636;2022-10-16T14:49:50;46.58;;;26.83;;
70850;SDS011;58475;49.662;9.636;2022-10-16T14:52:16;13.88;;;6.45;;
70850;SDS011;58475;49.662;9.636;2022-10-16T14:54:41;9.63;;;4.85;;
70850;SDS011;58475;49.662;9.636;2022-10-16T14:57:15;6.57;;;3.25;;
70850;SDS011;58475;49.662;9.636;2022-10-16T14:59:42;8.00;;;2.92;;
70850;SDS011;58475;49.662;9.636;2022-10-16T15:02:18;8.27;;;3.28;;
70850;SDS011;58475;49.662;9.636;2022-10-16T15:04:55;6.25;;;3.10;;
70850;SDS011;58475;49.662;9.636;2022-10-16T15:07:21;5.90;;;2.60;;
70850;SDS011;58475;49.662;9.636;2022-10-16T15:09:46;5.75;;;3.15;;
70850;SDS011;58475;49.662;9.636;2022-10-16T15:12:12;6.95;;;3.20;;
70850;SDS011;58475;49.662;9.636;2022-10-16T15:14:38;6.70;;;2.72;;
70850;SDS011;58475;49.662;9.636;2022-10-16T15:17:03;6.25;;;3.10;;
70850;SDS011;58475;49.662;9.636;2022-10-16T15:19:29;7.65;;;3.40;;
70850;SDS011;58475;49.662;9.636;2022-10-16T15:21:54;5.75;;;2.97;;
70850;SDS011;58475;49.662;9.636;2022-10-16T15:24:20;5.32;;;2.40;;
70850;SDS011;58475;49.662;9.636;2022-10-16T15:26:45;4.78;;;2.92;;
70850;SDS011;58475;49.662;9.636;2022-10-16T15:29:14;4.78;;;2.40;;
70850;SDS011;58475;49.662;9.636;2022-10-16T15:31:40;8.40;;;2.85;;
70850;SDS011;58475;49.662;9.636;2022-10-16T15:34:08;6.30;;;2.42;;
70850;SDS011;58475;49.662;9.636;2022-10-16T15:36:34;4.63;;;2.10;;
70850;SDS011;58475;49.662;9.636;2022-10-16T15:39:02;6.57;;;3.65;;
70850;SDS011;58475;49.662;9.636;2022-10-16T15:41:28;6.15;;;3.17;;
70850;SDS011;58475;49.662;9.636;2022-10-16T15:43:54;8.13;;;3.50;;
70850;SDS011;58475;49.662;9.636;2022-10-16T15:46:20;17.13;;;3.75;;
70850;SDS011;58475;49.662;9.636;2022-10-16T15:48:47;8.40;;;3.38;;
70850;SDS011;58475;49.662;9.636;2022-10-16T15:51:13;7.15;;;3.53;;
70850;SDS011;58475;49.662;9.636;2022-10-16T15:53:39;6.10;;;3.00;;
70850;SDS011;58475;49.662;9.636;2022-10-16T15:56:05;8.48;;;3.05;;
70850;SDS011;58475;49.662;9.636;2022-10-16T15:58:32;6.75;;;3.90;;
70850;SDS011;58475;49.662;9.636;2022-10-16T16:00:58;7.90;;;3.05;;
70850;SDS011;58475;49.662;9.636;2022-10-16T16:03:28;6.22;;;2.60;;
70850;SDS011;58475;49.662;9.636;2022-10-16T16:05:54;9.57;;;2.75;;
70850;SDS011;58475;49.662;9.636;2022-10-16T16:08:20;8.27;;;2.80;;
70850;SDS011;58475;49.662;9.636;2022-10-16T16:10:45;9.00;;;2.85;;
70850;SDS011;58475;49.662;9.636;2022-10-16T16:13:21;7.43;;;3.15;;
70850;SDS011;58475;49.662;9.636;2022-10-16T16:15:47;6.80;;;3.30;;
70850;SDS011;58475;49.662;9.636;2022-10-16T16:18:12;9.98;;;4.00;;
70850;SDS011;58475;49.662;9.636;2022-10-16T16:20:38;8.75;;;3.80;;
70850;SDS011;58475;49.662;9.636;2022-10-16T16:23:03;7.97;;;3.90;;
70850;SDS011;58475;49.662;9.636;2022-10-16T16:25:28;8.02;;;3.88;;
70850;SDS011;58475;49.662;9.636;2022-10-16T16:27:54;8.55;;;3.70;;
70850;SDS011;58475;49.662;9.636;2022-10-16T16:30:19;6.13;;;3.40;;
70850;SDS011;58475;49.662;9.636;2022-10-16T16:32:45;6.57;;;4.10;;
70850;SDS011;58475;49.662;9.636;2022-10-16T16:35:11;7.88;;;3.90;;
70850;SDS011;58475;49.662;9.636;2022-10-16T16:37:36;11.13;;;5.60;;
70850;SDS011;58475;49.662;9.636;2022-10-16T16:40:01;6.85;;;4.53;;
70850;SDS011;58475;49.662;9.636;2022-10-16T16:42:27;6.03;;;3.60;;
70850;SDS011;58475;49.662;9.636;2022-10-16T16:44:53;6.00;;;3.25;;
70850;SDS011;58475;49.662;9.636;2022-10-16T16:47:19;6.57;;;3.50;;
70850;SDS011;58475;49.662;9.636;2022-10-16T16:49:44;8.40;;;4.00;;
70850;SDS011;58475;49.662;9.636;2022-10-16T16:52:11;7.10;;;3.72;;
70850;SDS011;58475;49.662;9.636;2022-10-16T16:54:37;6.80;;;4.30;;
70850;SDS011;58475;49.662;9.636;2022-10-16T16:57:02;7.45;;;4.32;;
70850;SDS011;58475;49.662;9.636;2022-10-16T16:59:29;8.75;;;4.72;;
70850;SDS011;58475;49.662;9.636;2022-10-16T17:01:57;8.18;;;4.78;;
70850;SDS011;58475;49.662;9.636;2022-10-16T17:04:26;8.43;;;4.20;;
70850;SDS011;58475;49.662;9.636;2022-10-16T17:06:54;7.65;;;4.40;;
70850;SDS011;58475;49.662;9.636;2022-10-16T17:09:20;10.95;;;4.70;;